Airfield :
LOGIN :

Register | Disclaimer

   EN    FR    IT 

 










Legend :    VFR   Marginal VFR   IFR   Intensive IFR   Very Intensive IFR
Visi :
Ceiling :
>= 8 km
>= 3000ft
5 to 8 km
1000 to 3000 ft
1500m to 5 km
500 to 1000 ft
800 to 1500m
200 to 500 ft
< 800m
< 200 ft
Symbols :   Thunderstorms  Fog  Heavy snow  Heavy precipitations  Wind > 20 kt
SIGMETs :     Misc.  Thunderstorms  Icing  Turbulence  Mountain Waves  Volcanic Ashes






- Airport Elevation : 1411 ft
- IATA code : GVA


LSGG - Genève Cointrin

CURRENT METAR :
  • 130420Z AUTO 24016KT 9999 RA BKN021 04/02 Q0987 NOSIG

EXPIRED METARs :
  • 130350Z AUTO 23012KT 9999 -RA SCT023 SCT028 04/02 Q0988 NOSIG
  • 130320Z AUTO 25009KT 9999 RA BKN023 03/02 Q0989 NOSIG
  • 130250Z AUTO 26008KT 9999 RA BKN027 03/02 Q0989 NOSIG
  • 130220Z AUTO 26009KT 9999 -RA BKN024 03/02 Q0990 RERASN NOSIG
  • 130150Z AUTO 26007KT 9999 -RA BKN019 02/01 Q0991 RERASN NOSIG

TAF TAF LSGG
Valid from the 13 at 03:00 until the 14 at 09:00 UTC


130225Z 1303/1409 23010KT 9999 BKN025 TX06/1313Z TN03/1303Z TN02/1403Z
TEMPO 1303/1316 23015G25KT RA
PROB30
TEMPO 1308/1314 23020G35KT 4500 SHRAGS FEW020TCU
TEMPO 1323/1409 RA
PROB30
TEMPO 1400/1404 4500 RASN OVC009
ATIS : +41 22 417 40 81



MET'MAP, your aeronautical weather chart ! - Copyright ORBIFLY December 2007 - Disclaimer

ORBIFLY MET'MAP TEAM :

Programming & Development : Alexandra Zaïnal
Concept & original design : Baudouin d'Aumeries
Assistance for programming : Marc-Olivier Méhu
Technical & hardware support : Manuel Goepfert

Contact : metmap@orbifly.com




SOURCES & CREDITS :

   NOAA